Time;durP1;ratioP1;P1;durP2;ratioP2;P2;SDS_P1;SDS_P2;PMS_P1;PMS_P2;Temp;Humidity;BMP_temperature;BMP_pressure;BME280_temperature;BME280_humidity;BME280_pressure;Samples;Min_cycle;Max_cycle;Signal;HPM_P1;HPM_P2
2024/03/28 00:01:43;;;;;;;223.65;63.75;;;;;;;;;;4993373;28;20663;-46
2024/03/28 00:04:09;;;;;;;225.83;65.60;;;;;;;;;;4993487;28;20201;-46
2024/03/28 00:06:36;;;;;;;227.67;67.07;;;;;;;;;;4992748;28;20426;-46
2024/03/28 00:09:02;;;;;;;224.98;64.43;;;;;;;;;;4993177;28;20408;-46
2024/03/28 00:11:28;;;;;;;224.33;65.00;;;;;;;;;;4992927;28;20655;-45
2024/03/28 00:13:54;;;;;;;229.43;71.37;;;;;;;;;;4992750;28;20440;-46
2024/03/28 00:16:20;;;;;;;222.63;64.43;;;;;;;;;;4992722;28;20511;-45
2024/03/28 00:18:46;;;;;;;225.60;64.90;;;;;;;;;;4992812;28;20413;-46
2024/03/28 00:21:12;;;;;;;226.23;65.20;;;;;;;;;;4993105;28;20450;-46
2024/03/28 00:23:38;;;;;;;223.97;64.40;;;;;;;;;;4992770;28;21019;-46
2024/03/28 00:26:04;;;;;;;225.43;67.27;;;;;;;;;;4992723;28;20926;-46
2024/03/28 00:28:30;;;;;;;227.55;67.43;;;;;;;;;;4992441;28;20466;-46
2024/03/28 00:30:56;;;;;;;224.10;63.83;;;;;;;;;;4992724;28;20651;-47
2024/03/28 00:33:22;;;;;;;228.57;69.33;;;;;;;;;;4992610;28;20876;-45
2024/03/28 00:35:49;;;;;;;225.03;64.90;;;;;;;;;;4992267;28;20416;-45
2024/03/28 00:38:16;;;;;;;223.80;63.88;;;;;;;;;;4992551;28;20412;-46
2024/03/28 00:40:48;;;;;;;225.70;65.65;;;;;;;;;;4992471;28;20176;-46
2024/03/28 00:43:15;;;;;;;225.07;64.93;;;;;;;;;;4992263;28;20207;-45
2024/03/28 00:45:41;;;;;;;226.00;65.57;;;;;;;;;;4992208;28;20186;-45
2024/03/28 00:48:07;;;;;;;227.10;70.53;;;;;;;;;;4992606;28;20679;-46
2024/03/28 00:50:33;;;;;;;225.57;64.43;;;;;;;;;;4990261;28;20184;-46
2024/03/28 00:52:59;;;;;;;224.68;64.38;;;;;;;;;;4992234;28;20215;-46
2024/03/28 00:55:25;;;;;;;228.67;71.20;;;;;;;;;;4991999;28;20180;-46
2024/03/28 00:57:51;;;;;;;223.43;62.80;;;;;;;;;;4991908;28;20412;-47
2024/03/28 01:00:18;;;;;;;225.73;66.13;;;;;;;;;;4992867;28;20195;-46
2024/03/28 01:02:43;;;;;;;225.20;64.88;;;;;;;;;;4992102;28;20180;-46
2024/03/28 01:05:09;;;;;;;226.00;65.70;;;;;;;;;;4976793;28;20724;-47
2024/03/28 01:07:35;;;;;;;224.27;64.13;;;;;;;;;;4975253;28;20471;-48
2024/03/28 01:10:02;;;;;;;226.80;67.97;;;;;;;;;;4985317;28;20912;-47
2024/03/28 01:12:28;;;;;;;224.20;64.68;;;;;;;;;;4974973;28;20468;-46
2024/03/28 01:14:54;;;;;;;228.00;69.33;;;;;;;;;;4985333;28;20192;-47
2024/03/28 01:17:20;;;;;;;222.23;61.58;;;;;;;;;;4984177;28;20797;-48
2024/03/28 01:19:46;;;;;;;225.80;66.33;;;;;;;;;;4992074;28;20195;-47
2024/03/28 01:22:12;;;;;;;224.47;64.93;;;;;;;;;;4992042;28;20825;-47
2024/03/28 01:24:38;;;;;;;226.17;65.80;;;;;;;;;;4991967;28;21042;-46
2024/03/28 01:27:04;;;;;;;222.03;64.13;;;;;;;;;;4991842;28;20760;-48
2024/03/28 01:29:30;;;;;;;222.77;62.90;;;;;;;;;;4992081;28;20776;-48
2024/03/28 01:31:56;;;;;;;227.00;67.67;;;;;;;;;;4992111;28;20815;-47
2024/03/28 01:34:22;;;;;;;222.70;63.57;;;;;;;;;;4990647;28;20463;-48
2024/03/28 01:36:47;;;;;;;225.50;65.97;;;;;;;;;;4974292;28;20419;-48
2024/03/28 01:39:13;;;;;;;226.07;65.83;;;;;;;;;;4986481;28;20412;-47
2024/03/28 01:41:40;;;;;;;227.37;69.07;;;;;;;;;;4991921;28;20440;-47
2024/03/28 01:44:06;;;;;;;226.25;66.60;;;;;;;;;;4991186;28;20517;-47
2024/03/28 01:46:32;;;;;;;227.25;68.00;;;;;;;;;;4991376;28;20184;-47
2024/03/28 01:48:58;;;;;;;228.02;70.95;;;;;;;;;;4991784;28;20196;-48
2024/03/28 01:51:24;;;;;;;223.50;65.00;;;;;;;;;;4990010;28;20212;-48
2024/03/28 01:53:50;;;;;;;223.70;62.17;;;;;;;;;;4991498;28;20216;-46
2024/03/28 01:56:18;;;;;;;225.00;65.55;;;;;;;;;;4991331;28;20255;-47
2024/03/28 01:58:47;;;;;;;222.70;63.85;;;;;;;;;;4991625;28;20184;-49
2024/03/28 02:01:27;;;;;;;226.90;67.70;;;;;;;;;;4991192;28;20184;-47
2024/03/28 02:03:53;;;;;;;227.75;68.30;;;;;;;;;;4990875;28;20677;-47
2024/03/28 02:06:19;;;;;;;225.93;66.97;;;;;;;;;;4990807;28;20183;-46
2024/03/28 02:08:45;;;;;;;227.27;66.67;;;;;;;;;;4982966;28;20429;-46
2024/03/28 02:11:11;;;;;;;225.07;68.13;;;;;;;;;;4991451;28;20420;-48
2024/03/28 02:13:37;;;;;;;229.35;69.90;;;;;;;;;;4991328;28;20460;-47
2024/03/28 02:16:03;;;;;;;226.77;69.30;;;;;;;;;;4986570;28;20545;-48
2024/03/28 02:18:29;;;;;;;223.75;65.75;;;;;;;;;;4988594;28;20411;-46
2024/03/28 02:20:55;;;;;;;226.55;68.82;;;;;;;;;;4991099;28;20184;-47
2024/03/28 02:23:21;;;;;;;224.53;65.10;;;;;;;;;;4991294;28;20302;-47
2024/03/28 02:25:47;;;;;;;223.37;62.73;;;;;;;;;;4982897;28;20418;-48
2024/03/28 02:28:13;;;;;;;226.30;66.70;;;;;;;;;;4991467;28;20415;-46
2024/03/28 02:30:41;;;;;;;226.27;67.53;;;;;;;;;;4991261;28;20416;-47
2024/03/28 02:33:07;;;;;;;223.52;64.65;;;;;;;;;;4991097;28;20584;-48
2024/03/28 02:35:33;;;;;;;229.48;70.47;;;;;;;;;;4990904;28;20187;-46
2024/03/28 02:37:59;;;;;;;225.23;65.18;;;;;;;;;;4991443;28;20199;-47
2024/03/28 02:40:25;;;;;;;222.23;64.07;;;;;;;;;;4983216;28;20521;-46
2024/03/28 02:42:51;;;;;;;224.60;63.35;;;;;;;;;;4982958;28;20430;-46
2024/03/28 02:45:18;;;;;;;225.07;63.92;;;;;;;;;;4990957;28;20625;-46
2024/03/28 02:47:44;;;;;;;224.95;65.05;;;;;;;;;;4990928;28;20177;-47
2024/03/28 02:50:10;;;;;;;222.35;64.20;;;;;;;;;;4989070;28;20603;-46
2024/03/28 02:52:36;;;;;;;225.80;68.30;;;;;;;;;;4990984;28;20308;-47
2024/03/28 02:55:03;;;;;;;222.10;64.40;;;;;;;;;;4985055;28;20858;-46
2024/03/28 02:57:28;;;;;;;224.85;67.72;;;;;;;;;;4986459;28;20259;-47
2024/03/28 02:59:54;;;;;;;223.27;64.00;;;;;;;;;;4994840;28;20672;-46
2024/03/28 03:02:20;;;;;;;223.00;64.93;;;;;;;;;;4994477;28;20414;-46
2024/03/28 03:04:46;;;;;;;224.13;66.03;;;;;;;;;;4984163;28;20512;-46
2024/03/28 03:07:12;;;;;;;221.57;61.40;;;;;;;;;;4977216;28;20412;-46
2024/03/28 03:09:38;;;;;;;223.97;65.47;;;;;;;;;;4992298;28;20553;-46
2024/03/28 03:12:04;;;;;;;219.90;62.57;;;;;;;;;;4981421;28;20468;-46
2024/03/28 03:14:31;;;;;;;220.95;62.42;;;;;;;;;;4977567;28;20792;-46
2024/03/28 03:16:57;;;;;;;223.65;64.03;;;;;;;;;;4993886;28;20636;-46
2024/03/28 03:19:23;;;;;;;222.70;63.93;;;;;;;;;;4994167;28;20310;-48
2024/03/28 03:21:51;;;;;;;221.70;63.50;;;;;;;;;;4994227;28;20922;-46
2024/03/28 03:24:17;;;;;;;221.45;62.22;;;;;;;;;;4993933;28;20451;-48
2024/03/28 03:26:49;;;;;;;226.02;67.90;;;;;;;;;;4978285;28;20181;-47
2024/03/28 03:34:52;;;;;;;222.27;64.50;;;;;;;;;;4993990;28;20207;-47
2024/03/28 03:37:22;;;;;;;220.07;63.10;;;;;;;;;;4993626;28;20179;-48
2024/03/28 03:39:55;;;;;;;223.70;64.85;;;;;;;;;;4993740;28;20484;-48
2024/03/28 03:42:21;;;;;;;220.82;61.80;;;;;;;;;;4993858;28;20357;-46
2024/03/28 03:44:47;;;;;;;222.57;64.67;;;;;;;;;;4993658;28;20887;-48
2024/03/28 03:47:13;;;;;;;222.95;64.45;;;;;;;;;;4993333;28;20422;-47
2024/03/28 03:49:43;;;;;;;222.18;64.47;;;;;;;;;;4991541;28;20557;-47
2024/03/28 03:52:14;;;;;;;226.15;66.82;;;;;;;;;;4993480;28;20206;-48
2024/03/28 03:54:40;;;;;;;223.50;66.10;;;;;;;;;;4993353;28;20195;-46
2024/03/28 03:57:06;;;;;;;224.00;65.53;;;;;;;;;;4993048;28;20531;-47
2024/03/28 03:59:33;;;;;;;226.20;69.10;;;;;;;;;;4993391;28;20229;-48
2024/03/28 04:01:59;;;;;;;221.77;64.38;;;;;;;;;;4993385;28;20195;-48
2024/03/28 04:04:24;;;;;;;225.70;67.93;;;;;;;;;;4993846;28;20211;-47
2024/03/28 04:06:50;;;;;;;224.13;65.27;;;;;;;;;;4992570;28;20457;-49
2024/03/28 04:09:17;;;;;;;222.57;63.37;;;;;;;;;;4993589;28;20426;-46
2024/03/28 04:11:43;;;;;;;223.25;64.72;;;;;;;;;;4992969;28;20450;-46
2024/03/28 04:14:09;;;;;;;225.17;68.00;;;;;;;;;;4987424;28;20202;-47
2024/03/28 04:16:35;;;;;;;224.07;66.72;;;;;;;;;;4982388;28;20419;-46
2024/03/28 04:19:01;;;;;;;223.50;67.27;;;;;;;;;;4988416;28;20181;-46
2024/03/28 04:21:29;;;;;;;221.70;63.73;;;;;;;;;;4989771;28;20442;-45
2024/03/28 04:23:57;;;;;;;222.52;64.05;;;;;;;;;;4992726;28;20449;-47
2024/03/28 04:26:23;;;;;;;221.75;62.42;;;;;;;;;;4993009;28;20180;-48
2024/03/28 04:28:49;;;;;;;219.27;60.42;;;;;;;;;;4992776;28;20180;-47
2024/03/28 04:31:15;;;;;;;222.27;64.97;;;;;;;;;;4992746;28;20187;-46
2024/03/28 04:33:42;;;;;;;220.43;62.40;;;;;;;;;;4992498;28;20483;-46
2024/03/28 04:36:08;;;;;;;221.20;60.08;;;;;;;;;;4992352;28;20902;-47
2024/03/28 04:38:36;;;;;;;225.88;67.07;;;;;;;;;;4992834;28;20224;-46
2024/03/28 04:41:02;;;;;;;221.35;63.35;;;;;;;;;;4992528;28;20184;-46
2024/03/28 04:43:28;;;;;;;221.30;64.43;;;;;;;;;;4992483;28;20206;-46
2024/03/28 04:45:54;;;;;;;223.60;64.33;;;;;;;;;;4992412;28;20190;-47
2024/03/28 04:48:20;;;;;;;221.87;62.83;;;;;;;;;;4992616;28;20462;-46
2024/03/28 04:50:46;;;;;;;219.77;61.70;;;;;;;;;;4990225;28;20417;-45
2024/03/28 04:53:12;;;;;;;219.90;61.42;;;;;;;;;;4992055;28;20479;-47
2024/03/28 04:55:38;;;;;;;224.43;66.53;;;;;;;;;;4992145;28;20522;-47
2024/03/28 04:58:04;;;;;;;221.10;62.23;;;;;;;;;;4992341;28;20415;-47
2024/03/28 05:00:30;;;;;;;222.05;65.05;;;;;;;;;;4992218;28;20974;-47
2024/03/28 05:02:56;;;;;;;223.52;66.53;;;;;;;;;;4992132;28;20692;-46
2024/03/28 05:05:22;;;;;;;220.97;61.90;;;;;;;;;;4979438;28;20305;-45
2024/03/28 05:07:48;;;;;;;222.43;63.17;;;;;;;;;;4975909;28;20842;-46
2024/03/28 05:10:14;;;;;;;220.33;63.50;;;;;;;;;;4987131;28;20387;-46
2024/03/28 05:12:40;;;;;;;221.25;64.57;;;;;;;;;;4976436;28;20462;-46
2024/03/28 05:15:06;;;;;;;222.17;64.17;;;;;;;;;;4978771;28;20186;-47
2024/03/28 05:17:32;;;;;;;225.57;68.43;;;;;;;;;;4991040;28;20406;-47
2024/03/28 05:19:58;;;;;;;221.18;63.38;;;;;;;;;;4992309;28;20186;-46
2024/03/28 05:22:26;;;;;;;219.27;61.07;;;;;;;;;;4988089;28;20355;-47
2024/03/28 05:24:52;;;;;;;223.50;66.70;;;;;;;;;;4975733;28;20462;-46
2024/03/28 05:27:18;;;;;;;219.77;62.20;;;;;;;;;;4987068;28;20223;-48
2024/03/28 05:29:44;;;;;;;220.20;62.77;;;;;;;;;;4991656;28;20786;-47
2024/03/28 05:32:10;;;;;;;225.07;68.57;;;;;;;;;;4991809;28;20456;-47
2024/03/28 05:34:36;;;;;;;221.63;64.30;;;;;;;;;;4991597;28;20933;-46
2024/03/28 05:37:02;;;;;;;218.83;61.37;;;;;;;;;;4991783;28;20229;-46
2024/03/28 05:39:28;;;;;;;220.50;62.10;;;;;;;;;;4991737;28;20786;-46
2024/03/28 05:41:54;;;;;;;217.18;58.95;;;;;;;;;;4983629;28;20203;-47
2024/03/28 05:44:20;;;;;;;221.15;63.47;;;;;;;;;;4991674;28;20199;-46
2024/03/28 05:46:46;;;;;;;224.87;68.50;;;;;;;;;;4989732;28;20700;-46
2024/03/28 05:49:13;;;;;;;219.97;63.90;;;;;;;;;;4974306;28;20418;-46
2024/03/28 05:51:39;;;;;;;223.20;66.43;;;;;;;;;;4989914;28;20780;-47
2024/03/28 05:54:04;;;;;;;220.73;63.60;;;;;;;;;;4991607;28;20198;-47
2024/03/28 05:56:30;;;;;;;218.07;61.20;;;;;;;;;;4991168;28;20515;-47
2024/03/28 05:58:58;;;;;;;223.67;67.63;;;;;;;;;;4991495;28;20415;-46
2024/03/28 06:01:24;;;;;;;218.68;61.35;;;;;;;;;;4991419;28;20974;-46
2024/03/28 06:03:50;;;;;;;221.57;64.43;;;;;;;;;;4991134;28;20211;-46
2024/03/28 06:06:16;;;;;;;219.18;61.50;;;;;;;;;;4991084;28;20457;-46
2024/03/28 06:08:43;;;;;;;220.17;63.77;;;;;;;;;;4977985;28;20417;-46
2024/03/28 06:11:09;;;;;;;224.52;69.25;;;;;;;;;;4974054;28;20415;-47
2024/03/28 06:13:35;;;;;;;223.23;67.03;;;;;;;;;;4977821;28;20215;-47
2024/03/28 06:16:01;;;;;;;221.13;66.53;;;;;;;;;;4976275;28;20416;-47
2024/03/28 06:18:28;;;;;;;224.65;68.40;;;;;;;;;;4978287;28;20424;-46
2024/03/28 06:20:57;;;;;;;224.15;66.85;;;;;;;;;;4974059;28;20188;-46
2024/03/28 06:23:23;;;;;;;222.75;65.07;;;;;;;;;;4975097;28;20307;-48
2024/03/28 06:25:49;;;;;;;222.60;67.20;;;;;;;;;;4973752;28;20271;-47
2024/03/28 06:28:18;;;;;;;224.98;68.07;;;;;;;;;;4971214;28;20794;-47
2024/03/28 06:30:44;;;;;;;224.02;67.15;;;;;;;;;;4978692;28;20683;-46
2024/03/28 06:33:10;;;;;;;233.32;76.18;;;;;;;;;;4988887;28;20215;-46
2024/03/28 06:35:37;;;;;;;226.38;70.15;;;;;;;;;;4977572;28;20276;-46
2024/03/28 06:38:03;;;;;;;229.77;71.68;;;;;;;;;;4976386;28;20173;-46
2024/03/28 06:40:29;;;;;;;222.95;66.40;;;;;;;;;;4979566;28;20262;-46
2024/03/28 06:42:55;;;;;;;224.90;68.13;;;;;;;;;;4981568;28;20274;-45
2024/03/28 06:45:22;;;;;;;225.27;67.17;;;;;;;;;;4982481;28;20472;-45
2024/03/28 06:47:48;;;;;;;230.32;69.90;;;;;;;;;;4976308;28;20450;-46
2024/03/28 06:50:14;;;;;;;226.90;68.40;;;;;;;;;;4977761;28;20658;-46
2024/03/28 06:52:41;;;;;;;229.30;70.75;;;;;;;;;;4979223;28;20463;-45
2024/03/28 06:55:07;;;;;;;235.05;76.93;;;;;;;;;;4982869;28;20174;-45
2024/03/28 06:57:32;;;;;;;232.75;74.10;;;;;;;;;;4976328;28;20589;-45
2024/03/28 06:59:58;;;;;;;234.20;72.97;;;;;;;;;;4976123;28;20178;-45
2024/03/28 07:02:24;;;;;;;234.33;72.67;;;;;;;;;;4975480;28;20424;-47
2024/03/28 07:04:50;;;;;;;234.63;73.82;;;;;;;;;;4976336;28;20445;-47
2024/03/28 07:07:16;;;;;;;238.50;78.50;;;;;;;;;;4977313;28;20199;-46
2024/03/28 07:09:42;;;;;;;237.73;76.37;;;;;;;;;;4978221;28;20427;-45
2024/03/28 07:12:08;;;;;;;238.60;78.03;;;;;;;;;;4974787;28;20563;-46
2024/03/28 07:14:34;;;;;;;235.07;71.90;;;;;;;;;;4976865;28;20444;-46
2024/03/28 07:17:00;;;;;;;239.80;78.70;;;;;;;;;;4977222;28;20759;-46
2024/03/28 07:19:26;;;;;;;238.53;76.40;;;;;;;;;;4975784;28;20447;-46
2024/03/28 07:21:52;;;;;;;238.77;75.70;;;;;;;;;;4976156;28;20420;-44
2024/03/28 07:24:18;;;;;;;238.30;78.03;;;;;;;;;;4979837;28;20463;-44
2024/03/28 07:26:44;;;;;;;239.30;77.43;;;;;;;;;;4974587;28;20421;-44
2024/03/28 07:29:10;;;;;;;242.27;79.17;;;;;;;;;;4974616;28;20494;-45
2024/03/28 07:31:36;;;;;;;239.53;78.87;;;;;;;;;;4976089;28;20439;-44
2024/03/28 07:34:02;;;;;;;241.63;78.40;;;;;;;;;;4974471;28;20464;-45
2024/03/28 07:36:28;;;;;;;239.43;78.77;;;;;;;;;;4975362;28;20428;-46
2024/03/28 07:38:54;;;;;;;238.37;75.97;;;;;;;;;;4981861;28;20423;-48
2024/03/28 07:41:20;;;;;;;237.23;78.13;;;;;;;;;;4974651;28;20419;-49
2024/03/28 07:43:46;;;;;;;237.57;76.37;;;;;;;;;;4976523;28;20484;-48
2024/03/28 07:46:12;;;;;;;241.65;78.30;;;;;;;;;;4975952;28;20452;-48
2024/03/28 07:48:38;;;;;;;237.57;76.00;;;;;;;;;;4978621;28;20592;-49
2024/03/28 07:51:04;;;;;;;234.77;75.40;;;;;;;;;;4977519;28;20496;-47
2024/03/28 07:53:32;;;;;;;238.77;79.80;;;;;;;;;;4978464;28;20465;-48
2024/03/28 07:55:58;;;;;;;231.65;72.68;;;;;;;;;;4981509;28;20173;-49
2024/03/28 07:58:25;;;;;;;231.95;71.55;;;;;;;;;;4974599;28;20532;-46
2024/03/28 08:00:51;;;;;;;228.75;67.18;;;;;;;;;;4976869;28;20653;-46
2024/03/28 08:03:18;;;;;;;232.98;74.93;;;;;;;;;;4977046;28;20206;-46
2024/03/28 08:05:46;;;;;;;232.50;73.63;;;;;;;;;;4978435;28;20188;-46
2024/03/28 08:08:13;;;;;;;234.55;75.50;;;;;;;;;;4978236;28;20322;-46
2024/03/28 08:10:39;;;;;;;235.02;76.68;;;;;;;;;;4978950;28;20185;-46
2024/03/28 08:13:05;;;;;;;233.23;75.30;;;;;;;;;;4973522;28;20243;-46
2024/03/28 08:15:33;;;;;;;233.13;75.33;;;;;;;;;;4975079;28;20264;-46
2024/03/28 08:18:00;;;;;;;231.50;74.00;;;;;;;;;;4977915;28;20417;-46
2024/03/28 08:20:28;;;;;;;229.98;71.95;;;;;;;;;;4975772;28;20193;-46
2024/03/28 08:22:54;;;;;;;233.93;74.15;;;;;;;;;;4977464;28;20266;-46
2024/03/28 08:25:22;;;;;;;231.35;72.13;;;;;;;;;;4973379;28;20193;-47
2024/03/28 08:27:48;;;;;;;231.52;72.05;;;;;;;;;;4973084;28;20723;-46
2024/03/28 08:30:15;;;;;;;229.30;70.93;;;;;;;;;;4980323;28;20189;-46
2024/03/28 08:32:41;;;;;;;227.77;68.10;;;;;;;;;;4984349;28;20875;-45
2024/03/28 08:35:10;;;;;;;231.93;75.28;;;;;;;;;;4984685;28;20200;-45
2024/03/28 08:37:39;;;;;;;227.80;68.50;;;;;;;;;;4992492;28;20582;-45
2024/03/28 08:40:09;;;;;;;227.25;72.22;;;;;;;;;;4984523;28;20239;-45
2024/03/28 08:42:35;;;;;;;229.50;70.82;;;;;;;;;;4991739;28;20177;-45
2024/03/28 08:45:01;;;;;;;230.55;70.32;;;;;;;;;;4973115;28;20197;-47
2024/03/28 08:47:27;;;;;;;225.27;65.25;;;;;;;;;;4980775;28;20234;-46
2024/03/28 08:49:53;;;;;;;226.60;67.97;;;;;;;;;;4982328;28;20176;-46
2024/03/28 08:52:19;;;;;;;228.13;71.97;;;;;;;;;;4981042;28;20280;-47
2024/03/28 08:54:45;;;;;;;230.43;72.87;;;;;;;;;;4973129;28;20440;-45
2024/03/28 08:57:12;;;;;;;229.77;72.90;;;;;;;;;;4975566;28;20409;-45
2024/03/28 08:59:39;;;;;;;228.45;70.35;;;;;;;;;;4976349;28;20942;-45
2024/03/28 09:02:05;;;;;;;227.55;71.15;;;;;;;;;;4985608;28;20202;-46
2024/03/28 09:04:31;;;;;;;223.07;65.37;;;;;;;;;;4982994;28;20704;-46
2024/03/28 09:06:57;;;;;;;225.30;67.87;;;;;;;;;;4975185;28;20416;-46
2024/03/28 09:09:23;;;;;;;225.57;68.87;;;;;;;;;;4981035;28;20414;-46
2024/03/28 09:11:50;;;;;;;223.90;66.32;;;;;;;;;;4986498;28;20585;-45
2024/03/28 09:14:16;;;;;;;222.40;63.58;;;;;;;;;;4974738;28;20203;-46
2024/03/28 09:16:42;;;;;;;228.60;69.43;;;;;;;;;;4983373;28;20188;-45
2024/03/28 09:19:08;;;;;;;223.98;67.82;;;;;;;;;;4972683;28;20519;-45
2024/03/28 09:21:35;;;;;;;221.10;65.03;;;;;;;;;;4974583;28;20797;-44
2024/03/28 09:24:01;;;;;;;221.95;64.55;;;;;;;;;;4972330;28;20975;-45
2024/03/28 09:26:28;;;;;;;228.10;69.97;;;;;;;;;;4987338;28;20183;-45
2024/03/28 09:28:58;;;;;;;222.50;65.13;;;;;;;;;;4981586;28;20403;-46
2024/03/28 09:31:24;;;;;;;221.02;64.65;;;;;;;;;;4975003;28;20268;-45
2024/03/28 09:33:50;;;;;;;220.32;61.67;;;;;;;;;;4973387;28;20263;-45
2024/03/28 09:36:17;;;;;;;224.70;68.87;;;;;;;;;;4979921;28;20179;-45
2024/03/28 09:38:44;;;;;;;222.38;64.15;;;;;;;;;;4973760;28;20421;-46
2024/03/28 09:41:29;;;;;;;222.13;64.65;;;;;;;;;;4979525;28;20176;-45
2024/03/28 09:44:05;;;;;;;218.50;61.35;;;;;;;;;;4964695;28;20203;-47
2024/03/28 09:46:31;;;;;;;224.07;67.00;;;;;;;;;;4979929;28;20182;-46
2024/03/28 09:48:59;;;;;;;223.90;64.82;;;;;;;;;;4976038;28;20191;-45
2024/03/28 09:51:26;;;;;;;229.88;70.93;;;;;;;;;;4980591;28;20260;-45
2024/03/28 09:53:53;;;;;;;225.63;65.25;;;;;;;;;;4978921;28;20235;-45
2024/03/28 09:56:19;;;;;;;224.90;69.55;;;;;;;;;;4986893;28;20255;-45
2024/03/28 09:58:45;;;;;;;223.83;63.97;;;;;;;;;;4989205;28;20212;-45
2024/03/28 10:01:12;;;;;;;222.67;62.47;;;;;;;;;;4986057;28;20423;-47
2024/03/28 10:03:39;;;;;;;226.18;67.93;;;;;;;;;;4984036;28;20441;-46
2024/03/28 10:06:06;;;;;;;226.70;71.22;;;;;;;;;;4987474;28;20183;-45
2024/03/28 10:08:32;;;;;;;222.48;64.60;;;;;;;;;;4985908;28;20182;-47
2024/03/28 10:10:58;;;;;;;225.87;69.10;;;;;;;;;;4976136;28;20263;-45
2024/03/28 10:13:37;;;;;;;220.23;61.72;;;;;;;;;;4991433;28;20472;-46
2024/03/28 10:16:06;;;;;;;220.73;63.15;;;;;;;;;;4982329;28;20199;-45
2024/03/28 10:18:33;;;;;;;223.25;64.78;;;;;;;;;;4984098;28;20248;-44
2024/03/28 10:20:59;;;;;;;223.75;64.22;;;;;;;;;;4984079;28;20193;-44
2024/03/28 10:23:26;;;;;;;219.45;60.80;;;;;;;;;;4991550;28;20238;-47
2024/03/28 10:25:52;;;;;;;220.73;62.47;;;;;;;;;;4975763;28;20169;-45
2024/03/28 10:28:22;;;;;;;224.95;65.53;;;;;;;;;;4975652;28;20255;-47
2024/03/28 10:30:52;;;;;;;223.60;64.82;;;;;;;;;;4975553;28;20236;-46
2024/03/28 10:33:19;;;;;;;224.52;66.70;;;;;;;;;;4976312;28;20223;-45
2024/03/28 10:35:55;;;;;;;224.02;66.18;;;;;;;;;;4977456;28;20179;-45
2024/03/28 10:38:21;;;;;;;221.32;62.60;;;;;;;;;;4977511;28;20637;-46
2024/03/28 10:40:49;;;;;;;220.77;62.20;;;;;;;;;;4984420;28;20196;-45
2024/03/28 10:43:16;;;;;;;223.40;64.97;;;;;;;;;;4982048;28;20550;-44
2024/03/28 10:45:44;;;;;;;222.85;62.92;;;;;;;;;;4976720;28;20660;-46
2024/03/28 10:48:17;;;;;;;224.45;65.85;;;;;;;;;;4987108;28;20215;-44
2024/03/28 10:50:55;;;;;;;223.15;65.10;;;;;;;;;;4978542;28;20180;-45
2024/03/28 10:53:24;;;;;;;223.85;66.85;;;;;;;;;;4990871;28;20260;-46
2024/03/28 10:55:52;;;;;;;221.88;61.88;;;;;;;;;;4994733;28;20200;-46
2024/03/28 10:58:19;;;;;;;221.50;64.28;;;;;;;;;;4994567;28;20774;-46
2024/03/28 11:00:45;;;;;;;221.57;62.28;;;;;;;;;;4995147;28;20179;-45
2024/03/28 11:03:13;;;;;;;222.95;64.50;;;;;;;;;;4994541;28;20204;-46
2024/03/28 11:05:39;;;;;;;222.38;63.47;;;;;;;;;;4981043;28;20188;-45
2024/03/28 11:08:07;;;;;;;222.88;64.65;;;;;;;;;;4976413;28;20195;-44
2024/03/28 11:10:33;;;;;;;219.70;61.35;;;;;;;;;;4992182;28;20218;-45
2024/03/28 11:12:59;;;;;;;219.25;61.47;;;;;;;;;;4978600;28;20557;-44
2024/03/28 11:15:25;;;;;;;222.32;65.22;;;;;;;;;;4983197;28;20236;-44
2024/03/28 11:17:51;;;;;;;223.93;67.80;;;;;;;;;;4991485;28;20183;-44
2024/03/28 11:20:21;;;;;;;221.77;67.07;;;;;;;;;;4990469;28;20501;-44
2024/03/28 11:22:47;;;;;;;225.35;68.10;;;;;;;;;;4982961;28;20415;-44
2024/03/28 11:25:26;;;;;;;226.15;67.15;;;;;;;;;;4981711;28;20693;-44
2024/03/28 11:28:02;;;;;;;221.80;66.40;;;;;;;;;;4993817;28;20213;-44
2024/03/28 11:30:28;;;;;;;221.77;64.53;;;;;;;;;;4994129;28;20181;-45
2024/03/28 11:33:03;;;;;;;221.43;63.10;;;;;;;;;;4984066;28;20207;-45
2024/03/28 11:35:29;;;;;;;222.57;64.45;;;;;;;;;;4983473;28;20496;-46
2024/03/28 11:38:08;;;;;;;224.43;64.60;;;;;;;;;;4993746;28;20167;-45
2024/03/28 11:40:34;;;;;;;224.00;68.30;;;;;;;;;;4993705;28;20184;-46
2024/03/28 11:43:16;;;;;;;224.27;66.30;;;;;;;;;;4993625;28;20691;-45
2024/03/28 11:45:53;;;;;;;223.15;65.25;;;;;;;;;;4993181;28;20615;-45
2024/03/28 11:48:20;;;;;;;225.05;66.60;;;;;;;;;;4993574;28;20659;-46
2024/03/28 11:50:47;;;;;;;230.98;73.07;;;;;;;;;;4991452;28;20207;-45
2024/03/28 11:53:13;;;;;;;231.13;74.55;;;;;;;;;;4993598;28;20211;-45
2024/03/28 11:55:40;;;;;;;230.85;71.70;;;;;;;;;;4993168;28;20744;-45
2024/03/28 11:58:24;;;;;;;234.57;79.88;;;;;;;;;;4993250;28;20165;-45
2024/03/28 12:00:56;;;;;;;237.60;79.60;;;;;;;;;;4993498;28;20605;-46
2024/03/28 12:03:22;;;;;;;234.35;78.63;;;;;;;;;;4993327;28;20197;-45
2024/03/28 12:05:51;;;;;;;239.33;85.80;;;;;;;;;;4992938;28;20211;-45
2024/03/28 12:08:21;;;;;;;238.05;80.25;;;;;;;;;;4993164;28;20420;-46
2024/03/28 12:10:47;;;;;;;241.60;83.95;;;;;;;;;;4993044;28;20190;-47
2024/03/28 12:13:13;;;;;;;245.45;88.00;;;;;;;;;;4993214;28;20244;-45
2024/03/28 12:15:39;;;;;;;243.73;85.93;;;;;;;;;;4993032;28;20173;-46
2024/03/28 12:18:05;;;;;;;246.10;89.53;;;;;;;;;;4992971;28;20550;-46
2024/03/28 12:20:32;;;;;;;248.73;93.20;;;;;;;;;;4992953;28;20551;-46
2024/03/28 12:22:59;;;;;;;245.67;91.17;;;;;;;;;;4992562;28;20448;-46
2024/03/28 12:25:26;;;;;;;247.30;92.10;;;;;;;;;;4992707;28;20517;-46
2024/03/28 12:27:58;;;;;;;247.60;94.47;;;;;;;;;;4992401;28;20189;-46
2024/03/28 12:30:25;;;;;;;244.47;89.73;;;;;;;;;;4992795;28;20896;-47
2024/03/28 12:33:01;;;;;;;249.93;93.87;;;;;;;;;;4992525;28;20547;-47
2024/03/28 12:35:27;;;;;;;243.67;87.30;;;;;;;;;;4992522;28;20919;-47
2024/03/28 12:37:53;;;;;;;245.47;89.77;;;;;;;;;;4992657;28;20487;-44
2024/03/28 12:40:21;;;;;;;243.43;87.00;;;;;;;;;;4984639;28;20401;-44
2024/03/28 12:42:46;;;;;;;249.57;93.07;;;;;;;;;;4992446;28;20813;-47
2024/03/28 12:45:16;;;;;;;247.47;93.77;;;;;;;;;;4992432;28;20419;-45
2024/03/28 12:47:43;;;;;;;244.20;89.20;;;;;;;;;;4984231;28;20434;-45
2024/03/28 12:50:09;;;;;;;243.00;84.23;;;;;;;;;;4990169;28;20940;-44
2024/03/28 12:52:36;;;;;;;244.07;89.47;;;;;;;;;;4984384;28;20474;-45
2024/03/28 12:55:03;;;;;;;244.60;89.07;;;;;;;;;;4992087;28;20424;-46
2024/03/28 12:57:29;;;;;;;242.30;86.40;;;;;;;;;;4992345;28;20411;-46
2024/03/28 12:59:55;;;;;;;241.60;85.57;;;;;;;;;;4992521;28;20413;-46
2024/03/28 13:02:21;;;;;;;249.43;91.50;;;;;;;;;;4992265;28;20462;-46
2024/03/28 13:04:47;;;;;;;252.50;94.10;;;;;;;;;;4986321;28;21001;-46
2024/03/28 13:07:13;;;;;;;271.53;108.73;;;;;;;;;;4973304;28;20782;-44
2024/03/28 13:09:40;;;;;;;252.83;95.93;;;;;;;;;;4982157;28;20434;-45
2024/03/28 13:12:07;;;;;;;252.90;98.00;;;;;;;;;;4991960;28;20423;-47
2024/03/28 13:14:33;;;;;;;249.60;93.50;;;;;;;;;;4975836;28;20455;-45
2024/03/28 13:16:59;;;;;;;252.63;97.90;;;;;;;;;;4991712;28;20419;-44
2024/03/28 13:19:25;;;;;;;253.27;95.53;;;;;;;;;;4992005;28;20417;-46
2024/03/28 13:21:51;;;;;;;252.60;95.10;;;;;;;;;;4992468;28;20415;-48
2024/03/28 13:24:19;;;;;;;253.83;97.07;;;;;;;;;;4977279;28;20953;-46
2024/03/28 13:26:45;;;;;;;252.23;95.60;;;;;;;;;;4982400;28;20414;-46
2024/03/28 13:29:11;;;;;;;257.83;106.13;;;;;;;;;;4986036;28;20514;-46
2024/03/28 13:31:37;;;;;;;250.70;93.80;;;;;;;;;;4981442;28;20417;-46
2024/03/28 13:34:03;;;;;;;248.77;91.40;;;;;;;;;;4991490;28;20529;-45
2024/03/28 13:36:29;;;;;;;246.40;86.50;;;;;;;;;;4991749;28;20896;-48
2024/03/28 13:38:55;;;;;;;248.10;93.30;;;;;;;;;;4991198;28;20888;-46
2024/03/28 13:41:21;;;;;;;242.47;82.93;;;;;;;;;;4991926;28;20437;-47
2024/03/28 13:43:47;;;;;;;250.33;92.87;;;;;;;;;;4991863;28;20435;-45
2024/03/28 13:46:13;;;;;;;247.93;91.63;;;;;;;;;;4992062;28;20478;-45
2024/03/28 13:48:39;;;;;;;248.60;97.57;;;;;;;;;;4991682;28;20499;-45
2024/03/28 13:51:05;;;;;;;246.68;94.45;;;;;;;;;;4989511;28;20927;-45
2024/03/28 13:53:32;;;;;;;240.43;87.63;;;;;;;;;;4991389;28;20244;-44
2024/03/28 13:55:58;;;;;;;234.40;79.97;;;;;;;;;;4991411;28;20415;-45
2024/03/28 13:58:24;;;;;;;232.73;78.45;;;;;;;;;;4991577;28;20184;-46
2024/03/28 14:00:50;;;;;;;232.75;76.28;;;;;;;;;;4991558;28;20187;-46
2024/03/28 14:03:16;;;;;;;239.60;82.87;;;;;;;;;;4991662;28;20207;-46
2024/03/28 14:05:42;;;;;;;242.27;85.15;;;;;;;;;;4991290;28;20426;-46
2024/03/28 14:08:09;;;;;;;240.73;83.80;;;;;;;;;;4991214;28;20187;-45